sensor_id;sensor_type;location;lat;lon;timestamp;P1;durP1;ratioP1;P2;durP2;ratioP2
49722;SDS011;43484;43.608;1.458;2023-12-07T00:02:24;25.38;;;13.75;;
49722;SDS011;43484;43.608;1.458;2023-12-07T00:04:51;29.02;;;14.90;;
49722;SDS011;43484;43.608;1.458;2023-12-07T00:07:18;36.00;;;17.35;;
49722;SDS011;43484;43.608;1.458;2023-12-07T00:09:45;32.85;;;15.00;;
49722;SDS011;43484;43.608;1.458;2023-12-07T00:12:11;29.38;;;14.80;;
49722;SDS011;43484;43.608;1.458;2023-12-07T00:14:38;30.27;;;13.40;;
49722;SDS011;43484;43.608;1.458;2023-12-07T00:17:05;24.63;;;13.10;;
49722;SDS011;43484;43.608;1.458;2023-12-07T00:19:31;26.67;;;13.02;;
49722;SDS011;43484;43.608;1.458;2023-12-07T00:21:58;23.33;;;11.88;;
49722;SDS011;43484;43.608;1.458;2023-12-07T00:24:25;29.08;;;12.98;;
49722;SDS011;43484;43.608;1.458;2023-12-07T00:26:51;24.60;;;12.55;;
49722;SDS011;43484;43.608;1.458;2023-12-07T00:29:18;21.80;;;12.32;;
49722;SDS011;43484;43.608;1.458;2023-12-07T00:31:44;25.43;;;12.60;;
49722;SDS011;43484;43.608;1.458;2023-12-07T00:34:11;31.33;;;14.00;;
49722;SDS011;43484;43.608;1.458;2023-12-07T00:36:38;21.20;;;12.32;;
49722;SDS011;43484;43.608;1.458;2023-12-07T00:39:07;25.20;;;13.13;;
49722;SDS011;43484;43.608;1.458;2023-12-07T00:41:35;27.47;;;14.47;;
49722;SDS011;43484;43.608;1.458;2023-12-07T00:44:01;31.73;;;14.43;;
49722;SDS011;43484;43.608;1.458;2023-12-07T00:46:28;28.23;;;14.57;;
49722;SDS011;43484;43.608;1.458;2023-12-07T00:48:55;32.05;;;14.80;;
49722;SDS011;43484;43.608;1.458;2023-12-07T00:51:22;34.00;;;15.52;;
49722;SDS011;43484;43.608;1.458;2023-12-07T00:53:49;29.80;;;15.10;;
49722;SDS011;43484;43.608;1.458;2023-12-07T00:56:15;33.37;;;15.80;;
49722;SDS011;43484;43.608;1.458;2023-12-07T00:58:42;32.10;;;15.38;;
49722;SDS011;43484;43.608;1.458;2023-12-07T01:01:09;34.03;;;15.17;;
49722;SDS011;43484;43.608;1.458;2023-12-07T01:03:35;36.83;;;13.87;;
49722;SDS011;43484;43.608;1.458;2023-12-07T01:06:02;33.73;;;15.43;;
49722;SDS011;43484;43.608;1.458;2023-12-07T01:08:29;24.40;;;15.20;;
49722;SDS011;43484;43.608;1.458;2023-12-07T01:10:56;33.43;;;15.33;;
49722;SDS011;43484;43.608;1.458;2023-12-07T01:13:23;29.50;;;14.90;;
49722;SDS011;43484;43.608;1.458;2023-12-07T01:15:50;30.63;;;14.70;;
49722;SDS011;43484;43.608;1.458;2023-12-07T01:18:17;31.47;;;15.20;;
49722;SDS011;43484;43.608;1.458;2023-12-07T01:20:43;28.57;;;14.80;;
49722;SDS011;43484;43.608;1.458;2023-12-07T01:23:10;32.50;;;15.98;;
49722;SDS011;43484;43.608;1.458;2023-12-07T01:25:40;25.33;;;14.27;;
49722;SDS011;43484;43.608;1.458;2023-12-07T01:28:07;34.33;;;15.93;;
49722;SDS011;43484;43.608;1.458;2023-12-07T01:30:34;28.38;;;15.07;;
49722;SDS011;43484;43.608;1.458;2023-12-07T01:33:02;29.33;;;14.70;;
49722;SDS011;43484;43.608;1.458;2023-12-07T01:35:29;27.33;;;13.77;;
49722;SDS011;43484;43.608;1.458;2023-12-07T01:37:56;25.90;;;13.52;;
49722;SDS011;43484;43.608;1.458;2023-12-07T01:40:23;32.30;;;16.38;;
49722;SDS011;43484;43.608;1.458;2023-12-07T01:42:51;27.30;;;13.33;;
49722;SDS011;43484;43.608;1.458;2023-12-07T01:45:19;27.83;;;13.80;;
49722;SDS011;43484;43.608;1.458;2023-12-07T01:47:46;25.70;;;13.17;;
49722;SDS011;43484;43.608;1.458;2023-12-07T01:50:15;26.33;;;12.57;;
49722;SDS011;43484;43.608;1.458;2023-12-07T01:52:44;28.63;;;12.80;;
49722;SDS011;43484;43.608;1.458;2023-12-07T01:55:14;22.07;;;12.93;;
49722;SDS011;43484;43.608;1.458;2023-12-07T01:57:41;24.30;;;12.17;;
49722;SDS011;43484;43.608;1.458;2023-12-07T02:00:13;27.80;;;12.95;;
49722;SDS011;43484;43.608;1.458;2023-12-07T02:02:41;21.27;;;11.60;;
49722;SDS011;43484;43.608;1.458;2023-12-07T02:05:09;24.20;;;12.80;;
49722;SDS011;43484;43.608;1.458;2023-12-07T02:07:36;21.10;;;11.27;;
49722;SDS011;43484;43.608;1.458;2023-12-07T02:10:03;20.83;;;11.97;;
49722;SDS011;43484;43.608;1.458;2023-12-07T02:12:30;30.80;;;12.17;;
49722;SDS011;43484;43.608;1.458;2023-12-07T02:14:57;22.60;;;11.07;;
49722;SDS011;43484;43.608;1.458;2023-12-07T02:22:36;22.37;;;10.90;;
49722;SDS011;43484;43.608;1.458;2023-12-07T02:25:09;19.70;;;10.20;;
49722;SDS011;43484;43.608;1.458;2023-12-07T02:27:41;18.23;;;9.93;;
49722;SDS011;43484;43.608;1.458;2023-12-07T02:30:10;26.63;;;10.67;;
49722;SDS011;43484;43.608;1.458;2023-12-07T02:32:38;22.93;;;9.73;;
49722;SDS011;43484;43.608;1.458;2023-12-07T02:35:06;24.27;;;10.87;;
49722;SDS011;43484;43.608;1.458;2023-12-07T02:37:39;21.33;;;10.27;;
49722;SDS011;43484;43.608;1.458;2023-12-07T02:40:17;23.97;;;9.17;;
49722;SDS011;43484;43.608;1.458;2023-12-07T02:42:46;25.73;;;10.60;;
49722;SDS011;43484;43.608;1.458;2023-12-07T02:45:14;21.90;;;11.85;;
49722;SDS011;43484;43.608;1.458;2023-12-07T02:47:41;23.17;;;11.57;;
49722;SDS011;43484;43.608;1.458;2023-12-07T02:50:10;21.17;;;11.40;;
49722;SDS011;43484;43.608;1.458;2023-12-07T02:52:37;21.30;;;9.57;;
49722;SDS011;43484;43.608;1.458;2023-12-07T02:55:05;23.13;;;10.27;;
49722;SDS011;43484;43.608;1.458;2023-12-07T02:57:32;22.33;;;8.80;;
49722;SDS011;43484;43.608;1.458;2023-12-07T03:00:03;16.30;;;8.57;;
49722;SDS011;43484;43.608;1.458;2023-12-07T03:02:34;17.63;;;8.15;;
49722;SDS011;43484;43.608;1.458;2023-12-07T03:05:02;27.87;;;10.30;;
49722;SDS011;43484;43.608;1.458;2023-12-07T03:07:30;17.20;;;8.93;;
49722;SDS011;43484;43.608;1.458;2023-12-07T03:09:57;17.50;;;8.90;;
49722;SDS011;43484;43.608;1.458;2023-12-07T03:12:24;17.20;;;8.97;;
49722;SDS011;43484;43.608;1.458;2023-12-07T03:14:51;19.90;;;8.60;;
49722;SDS011;43484;43.608;1.458;2023-12-07T03:17:18;14.80;;;7.10;;
49722;SDS011;43484;43.608;1.458;2023-12-07T03:19:44;14.07;;;7.63;;
49722;SDS011;43484;43.608;1.458;2023-12-07T03:22:12;15.37;;;7.83;;
49722;SDS011;43484;43.608;1.458;2023-12-07T03:24:40;17.93;;;6.83;;
49722;SDS011;43484;43.608;1.458;2023-12-07T03:27:12;15.97;;;7.53;;
49722;SDS011;43484;43.608;1.458;2023-12-07T03:29:38;15.47;;;7.73;;
49722;SDS011;43484;43.608;1.458;2023-12-07T03:32:05;14.60;;;7.47;;
49722;SDS011;43484;43.608;1.458;2023-12-07T03:34:33;19.00;;;6.87;;
49722;SDS011;43484;43.608;1.458;2023-12-07T03:37:00;13.00;;;5.93;;
49722;SDS011;43484;43.608;1.458;2023-12-07T03:39:26;14.73;;;5.40;;
49722;SDS011;43484;43.608;1.458;2023-12-07T03:41:53;9.13;;;5.40;;
49722;SDS011;43484;43.608;1.458;2023-12-07T03:44:20;17.90;;;5.27;;
49722;SDS011;43484;43.608;1.458;2023-12-07T03:46:47;8.60;;;4.97;;
49722;SDS011;43484;43.608;1.458;2023-12-07T03:49:14;11.27;;;5.13;;
49722;SDS011;43484;43.608;1.458;2023-12-07T03:51:41;10.43;;;5.00;;
49722;SDS011;43484;43.608;1.458;2023-12-07T03:54:08;14.55;;;5.03;;
49722;SDS011;43484;43.608;1.458;2023-12-07T03:56:34;10.87;;;3.90;;
49722;SDS011;43484;43.608;1.458;2023-12-07T03:59:01;9.85;;;4.57;;
49722;SDS011;43484;43.608;1.458;2023-12-07T04:01:28;8.23;;;4.20;;
49722;SDS011;43484;43.608;1.458;2023-12-07T04:03:56;8.27;;;3.70;;
49722;SDS011;43484;43.608;1.458;2023-12-07T04:06:24;9.00;;;3.87;;
49722;SDS011;43484;43.608;1.458;2023-12-07T04:08:51;8.40;;;3.83;;
49722;SDS011;43484;43.608;1.458;2023-12-07T04:11:18;10.90;;;3.90;;
49722;SDS011;43484;43.608;1.458;2023-12-07T04:13:46;10.27;;;4.40;;
49722;SDS011;43484;43.608;1.458;2023-12-07T04:16:14;6.30;;;3.37;;
49722;SDS011;43484;43.608;1.458;2023-12-07T04:18:41;8.23;;;4.30;;
49722;SDS011;43484;43.608;1.458;2023-12-07T04:21:08;11.90;;;4.63;;
49722;SDS011;43484;43.608;1.458;2023-12-07T04:23:35;9.40;;;3.70;;
49722;SDS011;43484;43.608;1.458;2023-12-07T04:26:02;6.63;;;3.70;;
49722;SDS011;43484;43.608;1.458;2023-12-07T04:28:29;5.80;;;3.37;;
49722;SDS011;43484;43.608;1.458;2023-12-07T04:30:56;9.67;;;4.03;;
49722;SDS011;43484;43.608;1.458;2023-12-07T04:33:22;8.10;;;3.90;;
49722;SDS011;43484;43.608;1.458;2023-12-07T04:35:49;10.17;;;4.10;;
49722;SDS011;43484;43.608;1.458;2023-12-07T04:38:16;9.53;;;3.60;;
49722;SDS011;43484;43.608;1.458;2023-12-07T04:40:42;9.77;;;3.90;;
49722;SDS011;43484;43.608;1.458;2023-12-07T04:43:09;9.77;;;4.33;;
49722;SDS011;43484;43.608;1.458;2023-12-07T04:45:36;7.17;;;3.50;;
49722;SDS011;43484;43.608;1.458;2023-12-07T04:48:02;7.27;;;3.67;;
49722;SDS011;43484;43.608;1.458;2023-12-07T04:50:31;7.13;;;3.63;;
49722;SDS011;43484;43.608;1.458;2023-12-07T04:52:58;10.60;;;4.37;;
49722;SDS011;43484;43.608;1.458;2023-12-07T04:55:24;10.33;;;3.37;;
49722;SDS011;43484;43.608;1.458;2023-12-07T04:57:52;9.50;;;4.07;;
49722;SDS011;43484;43.608;1.458;2023-12-07T05:00:19;11.87;;;3.90;;
49722;SDS011;43484;43.608;1.458;2023-12-07T05:02:48;8.57;;;3.40;;
49722;SDS011;43484;43.608;1.458;2023-12-07T05:05:15;9.23;;;3.23;;
49722;SDS011;43484;43.608;1.458;2023-12-07T05:07:41;8.70;;;3.60;;
49722;SDS011;43484;43.608;1.458;2023-12-07T05:10:08;10.67;;;3.17;;
49722;SDS011;43484;43.608;1.458;2023-12-07T05:12:36;6.60;;;3.40;;
49722;SDS011;43484;43.608;1.458;2023-12-07T05:15:03;9.38;;;3.35;;
49722;SDS011;43484;43.608;1.458;2023-12-07T05:17:32;6.40;;;3.37;;
49722;SDS011;43484;43.608;1.458;2023-12-07T05:19:59;9.37;;;3.63;;
49722;SDS011;43484;43.608;1.458;2023-12-07T05:22:25;16.03;;;4.70;;
49722;SDS011;43484;43.608;1.458;2023-12-07T05:24:54;6.77;;;3.90;;
49722;SDS011;43484;43.608;1.458;2023-12-07T05:27:20;9.40;;;4.03;;
49722;SDS011;43484;43.608;1.458;2023-12-07T05:29:47;8.67;;;3.83;;
49722;SDS011;43484;43.608;1.458;2023-12-07T05:32:14;8.27;;;3.47;;
49722;SDS011;43484;43.608;1.458;2023-12-07T05:34:40;8.87;;;3.20;;
49722;SDS011;43484;43.608;1.458;2023-12-07T05:37:09;9.73;;;3.30;;
49722;SDS011;43484;43.608;1.458;2023-12-07T05:39:35;13.63;;;3.80;;
49722;SDS011;43484;43.608;1.458;2023-12-07T05:42:02;8.70;;;3.17;;
49722;SDS011;43484;43.608;1.458;2023-12-07T05:44:30;8.80;;;3.57;;
49722;SDS011;43484;43.608;1.458;2023-12-07T05:46:57;6.63;;;2.80;;
49722;SDS011;43484;43.608;1.458;2023-12-07T05:49:24;9.00;;;2.50;;
49722;SDS011;43484;43.608;1.458;2023-12-07T05:51:51;6.53;;;2.43;;
49722;SDS011;43484;43.608;1.458;2023-12-07T05:54:19;5.40;;;2.20;;
49722;SDS011;43484;43.608;1.458;2023-12-07T05:56:48;3.22;;;2.00;;
49722;SDS011;43484;43.608;1.458;2023-12-07T05:59:16;4.47;;;2.30;;
49722;SDS011;43484;43.608;1.458;2023-12-07T06:01:43;7.40;;;2.67;;
49722;SDS011;43484;43.608;1.458;2023-12-07T06:04:10;4.87;;;2.70;;
49722;SDS011;43484;43.608;1.458;2023-12-07T06:06:39;7.20;;;2.77;;
49722;SDS011;43484;43.608;1.458;2023-12-07T06:09:06;3.10;;;2.15;;
49722;SDS011;43484;43.608;1.458;2023-12-07T06:11:32;6.05;;;2.47;;
49722;SDS011;43484;43.608;1.458;2023-12-07T06:14:01;10.48;;;3.30;;
49722;SDS011;43484;43.608;1.458;2023-12-07T06:16:27;6.10;;;2.63;;
49722;SDS011;43484;43.608;1.458;2023-12-07T06:18:54;6.03;;;2.97;;
49722;SDS011;43484;43.608;1.458;2023-12-07T06:21:21;9.02;;;3.38;;
49722;SDS011;43484;43.608;1.458;2023-12-07T06:23:48;8.53;;;3.50;;
49722;SDS011;43484;43.608;1.458;2023-12-07T06:26:15;8.75;;;3.30;;
49722;SDS011;43484;43.608;1.458;2023-12-07T06:28:42;9.17;;;2.93;;
49722;SDS011;43484;43.608;1.458;2023-12-07T06:31:09;10.43;;;4.20;;
49722;SDS011;43484;43.608;1.458;2023-12-07T06:33:36;9.15;;;4.70;;
49722;SDS011;43484;43.608;1.458;2023-12-07T06:36:02;8.05;;;3.67;;
49722;SDS011;43484;43.608;1.458;2023-12-07T06:38:29;12.10;;;4.53;;
49722;SDS011;43484;43.608;1.458;2023-12-07T06:40:57;9.73;;;3.67;;
49722;SDS011;43484;43.608;1.458;2023-12-07T06:43:24;7.43;;;3.95;;
49722;SDS011;43484;43.608;1.458;2023-12-07T06:45:51;11.20;;;4.65;;
49722;SDS011;43484;43.608;1.458;2023-12-07T06:48:18;9.38;;;4.80;;
49722;SDS011;43484;43.608;1.458;2023-12-07T06:50:45;11.70;;;4.22;;
49722;SDS011;43484;43.608;1.458;2023-12-07T06:53:13;10.82;;;3.63;;
49722;SDS011;43484;43.608;1.458;2023-12-07T06:55:40;12.68;;;5.45;;
49722;SDS011;43484;43.608;1.458;2023-12-07T06:58:11;9.98;;;4.47;;
49722;SDS011;43484;43.608;1.458;2023-12-07T07:00:37;11.93;;;3.97;;
49722;SDS011;43484;43.608;1.458;2023-12-07T07:03:04;7.45;;;3.92;;
49722;SDS011;43484;43.608;1.458;2023-12-07T07:05:32;10.02;;;3.70;;
49722;SDS011;43484;43.608;1.458;2023-12-07T07:07:59;5.70;;;3.25;;
49722;SDS011;43484;43.608;1.458;2023-12-07T07:10:26;7.03;;;3.22;;
49722;SDS011;43484;43.608;1.458;2023-12-07T07:12:53;6.78;;;3.10;;
49722;SDS011;43484;43.608;1.458;2023-12-07T07:15:19;6.60;;;2.90;;
49722;SDS011;43484;43.608;1.458;2023-12-07T07:17:46;8.57;;;2.45;;
49722;SDS011;43484;43.608;1.458;2023-12-07T07:20:14;7.63;;;3.08;;
49722;SDS011;43484;43.608;1.458;2023-12-07T07:22:40;5.45;;;2.53;;
49722;SDS011;43484;43.608;1.458;2023-12-07T07:25:07;5.45;;;2.10;;
49722;SDS011;43484;43.608;1.458;2023-12-07T07:27:35;7.28;;;2.88;;
49722;SDS011;43484;43.608;1.458;2023-12-07T07:30:01;6.65;;;2.42;;
49722;SDS011;43484;43.608;1.458;2023-12-07T07:32:31;7.43;;;3.10;;
49722;SDS011;43484;43.608;1.458;2023-12-07T07:34:57;10.55;;;3.38;;
49722;SDS011;43484;43.608;1.458;2023-12-07T07:37:24;5.45;;;2.13;;
49722;SDS011;43484;43.608;1.458;2023-12-07T07:39:51;5.63;;;1.73;;
49722;SDS011;43484;43.608;1.458;2023-12-07T07:42:18;8.63;;;2.13;;
49722;SDS011;43484;43.608;1.458;2023-12-07T07:44:45;3.72;;;1.60;;
49722;SDS011;43484;43.608;1.458;2023-12-07T07:47:12;7.07;;;2.47;;
49722;SDS011;43484;43.608;1.458;2023-12-07T07:49:38;6.32;;;1.90;;
49722;SDS011;43484;43.608;1.458;2023-12-07T07:52:05;4.32;;;1.50;;
49722;SDS011;43484;43.608;1.458;2023-12-07T07:54:32;3.53;;;1.40;;
49722;SDS011;43484;43.608;1.458;2023-12-07T07:56:59;3.25;;;1.45;;
49722;SDS011;43484;43.608;1.458;2023-12-07T07:59:25;3.08;;;1.42;;
49722;SDS011;43484;43.608;1.458;2023-12-07T08:01:52;5.03;;;1.30;;
49722;SDS011;43484;43.608;1.458;2023-12-07T08:04:18;5.72;;;1.50;;
49722;SDS011;43484;43.608;1.458;2023-12-07T08:06:45;7.57;;;1.55;;
49722;SDS011;43484;43.608;1.458;2023-12-07T08:09:12;4.30;;;1.50;;
49722;SDS011;43484;43.608;1.458;2023-12-07T08:11:38;8.23;;;2.03;;
49722;SDS011;43484;43.608;1.458;2023-12-07T08:14:05;4.07;;;2.08;;
49722;SDS011;43484;43.608;1.458;2023-12-07T08:16:32;7.55;;;2.13;;
49722;SDS011;43484;43.608;1.458;2023-12-07T08:18:59;7.43;;;1.85;;
49722;SDS011;43484;43.608;1.458;2023-12-07T08:21:25;6.78;;;1.73;;
49722;SDS011;43484;43.608;1.458;2023-12-07T08:23:56;5.20;;;1.85;;
49722;SDS011;43484;43.608;1.458;2023-12-07T08:26:23;8.77;;;1.63;;
49722;SDS011;43484;43.608;1.458;2023-12-07T08:28:50;7.22;;;1.95;;
49722;SDS011;43484;43.608;1.458;2023-12-07T08:31:20;8.55;;;2.38;;
49722;SDS011;43484;43.608;1.458;2023-12-07T08:33:53;9.45;;;2.50;;
49722;SDS011;43484;43.608;1.458;2023-12-07T08:36:20;6.65;;;2.15;;
49722;SDS011;43484;43.608;1.458;2023-12-07T08:38:47;5.05;;;1.80;;
49722;SDS011;43484;43.608;1.458;2023-12-07T08:41:13;5.80;;;2.22;;
49722;SDS011;43484;43.608;1.458;2023-12-07T08:43:40;4.43;;;1.90;;
49722;SDS011;43484;43.608;1.458;2023-12-07T08:46:07;4.50;;;2.05;;
49722;SDS011;43484;43.608;1.458;2023-12-07T08:48:35;4.80;;;1.40;;
49722;SDS011;43484;43.608;1.458;2023-12-07T08:51:08;4.40;;;1.65;;
49722;SDS011;43484;43.608;1.458;2023-12-07T08:53:35;5.90;;;1.38;;
49722;SDS011;43484;43.608;1.458;2023-12-07T08:56:02;3.75;;;2.03;;
49722;SDS011;43484;43.608;1.458;2023-12-07T08:58:28;7.82;;;2.72;;
49722;SDS011;43484;43.608;1.458;2023-12-07T09:00:55;4.22;;;1.63;;
49722;SDS011;43484;43.608;1.458;2023-12-07T09:03:22;3.50;;;1.90;;
49722;SDS011;43484;43.608;1.458;2023-12-07T09:05:54;7.60;;;2.20;;
49722;SDS011;43484;43.608;1.458;2023-12-07T09:08:21;8.32;;;2.47;;
49722;SDS011;43484;43.608;1.458;2023-12-07T09:10:48;9.25;;;3.47;;
49722;SDS011;43484;43.608;1.458;2023-12-07T09:13:17;9.90;;;3.20;;
49722;SDS011;43484;43.608;1.458;2023-12-07T09:15:44;8.40;;;2.35;;
49722;SDS011;43484;43.608;1.458;2023-12-07T09:18:11;4.88;;;1.45;;
49722;SDS011;43484;43.608;1.458;2023-12-07T09:20:39;3.55;;;2.22;;
49722;SDS011;43484;43.608;1.458;2023-12-07T09:23:12;12.20;;;1.88;;
49722;SDS011;43484;43.608;1.458;2023-12-07T09:25:39;4.60;;;1.75;;
49722;SDS011;43484;43.608;1.458;2023-12-07T09:28:07;3.63;;;1.40;;
49722;SDS011;43484;43.608;1.458;2023-12-07T09:30:34;4.40;;;1.65;;
49722;SDS011;43484;43.608;1.458;2023-12-07T09:33:01;6.75;;;1.95;;
49722;SDS011;43484;43.608;1.458;2023-12-07T09:35:29;6.57;;;1.92;;
49722;SDS011;43484;43.608;1.458;2023-12-07T09:37:56;5.60;;;1.65;;
49722;SDS011;43484;43.608;1.458;2023-12-07T09:40:23;6.30;;;1.63;;
49722;SDS011;43484;43.608;1.458;2023-12-07T09:42:52;6.18;;;1.58;;
49722;SDS011;43484;43.608;1.458;2023-12-07T09:45:19;3.80;;;1.30;;
49722;SDS011;43484;43.608;1.458;2023-12-07T09:47:48;7.63;;;1.83;;
49722;SDS011;43484;43.608;1.458;2023-12-07T09:50:16;3.20;;;1.35;;
49722;SDS011;43484;43.608;1.458;2023-12-07T09:52:44;5.57;;;1.52;;
49722;SDS011;43484;43.608;1.458;2023-12-07T09:55:25;2.47;;;1.05;;
49722;SDS011;43484;43.608;1.458;2023-12-07T09:57:52;7.57;;;1.48;;
49722;SDS011;43484;43.608;1.458;2023-12-07T10:00:24;4.93;;;0.98;;
49722;SDS011;43484;43.608;1.458;2023-12-07T10:02:52;1.67;;;0.82;;
49722;SDS011;43484;43.608;1.458;2023-12-07T10:05:20;11.95;;;1.80;;
49722;SDS011;43484;43.608;1.458;2023-12-07T10:07:48;3.95;;;1.80;;
49722;SDS011;43484;43.608;1.458;2023-12-07T10:10:16;3.60;;;0.80;;
49722;SDS011;43484;43.608;1.458;2023-12-07T10:15:21;5.88;;;1.95;;
49722;SDS011;43484;43.608;1.458;2023-12-07T10:17:50;9.40;;;1.48;;
49722;SDS011;43484;43.608;1.458;2023-12-07T10:20:21;4.28;;;1.75;;
49722;SDS011;43484;43.608;1.458;2023-12-07T10:23:01;7.45;;;1.10;;
49722;SDS011;43484;43.608;1.458;2023-12-07T10:25:33;6.15;;;1.48;;
49722;SDS011;43484;43.608;1.458;2023-12-07T10:28:03;5.07;;;1.35;;
49722;SDS011;43484;43.608;1.458;2023-12-07T10:30:41;4.80;;;1.05;;
49722;SDS011;43484;43.608;1.458;2023-12-07T10:33:10;3.38;;;1.10;;
49722;SDS011;43484;43.608;1.458;2023-12-07T10:35:40;2.95;;;1.17;;
49722;SDS011;43484;43.608;1.458;2023-12-07T10:38:08;2.85;;;1.00;;
49722;SDS011;43484;43.608;1.458;2023-12-07T10:40:36;7.78;;;1.10;;
49722;SDS011;43484;43.608;1.458;2023-12-07T10:43:06;3.85;;;1.10;;
49722;SDS011;43484;43.608;1.458;2023-12-07T10:45:35;4.10;;;1.10;;
49722;SDS011;43484;43.608;1.458;2023-12-07T10:48:06;2.42;;;1.08;;
49722;SDS011;43484;43.608;1.458;2023-12-07T10:50:35;3.17;;;1.23;;
49722;SDS011;43484;43.608;1.458;2023-12-07T10:53:29;4.57;;;0.88;;
49722;SDS011;43484;43.608;1.458;2023-12-07T10:56:09;5.20;;;1.10;;
49722;SDS011;43484;43.608;1.458;2023-12-07T10:58:37;1.42;;;0.73;;
49722;SDS011;43484;43.608;1.458;2023-12-07T11:01:07;4.55;;;1.13;;
49722;SDS011;43484;43.608;1.458;2023-12-07T11:03:35;7.68;;;2.03;;
49722;SDS011;43484;43.608;1.458;2023-12-07T11:06:07;2.53;;;1.10;;
49722;SDS011;43484;43.608;1.458;2023-12-07T11:08:39;3.13;;;1.20;;
49722;SDS011;43484;43.608;1.458;2023-12-07T11:13:45;2.83;;;1.05;;
49722;SDS011;43484;43.608;1.458;2023-12-07T11:16:28;3.75;;;1.40;;
49722;SDS011;43484;43.608;1.458;2023-12-07T11:19:04;1.50;;;0.77;;
49722;SDS011;43484;43.608;1.458;2023-12-07T11:21:33;4.43;;;1.73;;
49722;SDS011;43484;43.608;1.458;2023-12-07T11:24:00;2.45;;;1.02;;
49722;SDS011;43484;43.608;1.458;2023-12-07T11:26:28;5.90;;;1.83;;
49722;SDS011;43484;43.608;1.458;2023-12-07T11:28:55;9.85;;;1.65;;
49722;SDS011;43484;43.608;1.458;2023-12-07T11:31:23;3.13;;;1.48;;
49722;SDS011;43484;43.608;1.458;2023-12-07T11:33:49;2.45;;;1.30;;
49722;SDS011;43484;43.608;1.458;2023-12-07T11:36:16;3.22;;;1.08;;
49722;SDS011;43484;43.608;1.458;2023-12-07T11:39:15;4.07;;;1.15;;
49722;SDS011;43484;43.608;1.458;2023-12-07T11:41:53;6.15;;;2.00;;
49722;SDS011;43484;43.608;1.458;2023-12-07T11:44:24;6.93;;;1.52;;
49722;SDS011;43484;43.608;1.458;2023-12-07T11:46:59;3.50;;;1.17;;
49722;SDS011;43484;43.608;1.458;2023-12-07T11:49:26;5.60;;;1.75;;
49722;SDS011;43484;43.608;1.458;2023-12-07T11:54:47;4.40;;;1.50;;
49722;SDS011;43484;43.608;1.458;2023-12-07T11:57:16;4.40;;;1.83;;
49722;SDS011;43484;43.608;1.458;2023-12-07T11:59:43;5.05;;;1.40;;
49722;SDS011;43484;43.608;1.458;2023-12-07T12:02:11;2.50;;;1.23;;
49722;SDS011;43484;43.608;1.458;2023-12-07T12:04:41;3.80;;;1.00;;
49722;SDS011;43484;43.608;1.458;2023-12-07T12:07:09;2.17;;;1.08;;
49722;SDS011;43484;43.608;1.458;2023-12-07T12:09:36;1.67;;;1.00;;
49722;SDS011;43484;43.608;1.458;2023-12-07T12:12:03;4.90;;;1.10;;
49722;SDS011;43484;43.608;1.458;2023-12-07T12:14:30;3.42;;;0.90;;
49722;SDS011;43484;43.608;1.458;2023-12-07T12:16:57;5.07;;;1.33;;
49722;SDS011;43484;43.608;1.458;2023-12-07T12:19:25;3.15;;;1.10;;
49722;SDS011;43484;43.608;1.458;2023-12-07T12:24:33;2.80;;;0.65;;
49722;SDS011;43484;43.608;1.458;2023-12-07T12:27:02;1.75;;;0.75;;
49722;SDS011;43484;43.608;1.458;2023-12-07T12:29:29;3.30;;;0.90;;
49722;SDS011;43484;43.608;1.458;2023-12-07T12:32:01;4.38;;;0.85;;
49722;SDS011;43484;43.608;1.458;2023-12-07T12:34:33;2.08;;;0.70;;
49722;SDS011;43484;43.608;1.458;2023-12-07T12:37:01;5.70;;;1.38;;
49722;SDS011;43484;43.608;1.458;2023-12-07T12:39:29;2.90;;;0.77;;
49722;SDS011;43484;43.608;1.458;2023-12-07T12:42:00;4.93;;;1.05;;
49722;SDS011;43484;43.608;1.458;2023-12-07T12:44:28;4.25;;;1.10;;
49722;SDS011;43484;43.608;1.458;2023-12-07T12:47:06;5.28;;;1.00;;
49722;SDS011;43484;43.608;1.458;2023-12-07T12:49:36;3.40;;;0.90;;
49722;SDS011;43484;43.608;1.458;2023-12-07T12:52:10;3.53;;;1.00;;
49722;SDS011;43484;43.608;1.458;2023-12-07T12:54:38;5.82;;;1.10;;
49722;SDS011;43484;43.608;1.458;2023-12-07T12:57:09;4.40;;;1.75;;
49722;SDS011;43484;43.608;1.458;2023-12-07T12:59:36;2.90;;;1.30;;
49722;SDS011;43484;43.608;1.458;2023-12-07T13:02:02;7.25;;;1.40;;
49722;SDS011;43484;43.608;1.458;2023-12-07T13:04:32;3.65;;;0.73;;
49722;SDS011;43484;43.608;1.458;2023-12-07T13:07:03;3.13;;;0.90;;
49722;SDS011;43484;43.608;1.458;2023-12-07T13:09:30;4.72;;;1.23;;
49722;SDS011;43484;43.608;1.458;2023-12-07T13:11:57;3.78;;;0.90;;
49722;SDS011;43484;43.608;1.458;2023-12-07T13:14:27;3.00;;;0.98;;
49722;SDS011;43484;43.608;1.458;2023-12-07T13:16:57;4.68;;;0.90;;
49722;SDS011;43484;43.608;1.458;2023-12-07T13:19:23;2.63;;;0.98;;
49722;SDS011;43484;43.608;1.458;2023-12-07T13:21:50;2.65;;;0.80;;
49722;SDS011;43484;43.608;1.458;2023-12-07T13:24:18;3.25;;;1.23;;
49722;SDS011;43484;43.608;1.458;2023-12-07T13:26:45;3.58;;;0.90;;
49722;SDS011;43484;43.608;1.458;2023-12-07T13:29:13;5.78;;;1.05;;
49722;SDS011;43484;43.608;1.458;2023-12-07T13:31:54;4.45;;;1.05;;
49722;SDS011;43484;43.608;1.458;2023-12-07T13:34:20;3.00;;;1.13;;
49722;SDS011;43484;43.608;1.458;2023-12-07T13:36:49;4.40;;;1.60;;
49722;SDS011;43484;43.608;1.458;2023-12-07T13:39:16;2.85;;;1.00;;
49722;SDS011;43484;43.608;1.458;2023-12-07T13:41:56;4.03;;;1.13;;
49722;SDS011;43484;43.608;1.458;2023-12-07T13:44:23;3.50;;;1.15;;
49722;SDS011;43484;43.608;1.458;2023-12-07T13:46:54;2.80;;;1.20;;
49722;SDS011;43484;43.608;1.458;2023-12-07T13:49:21;5.35;;;1.40;;
49722;SDS011;43484;43.608;1.458;2023-12-07T13:51:59;3.10;;;1.00;;
49722;SDS011;43484;43.608;1.458;2023-12-07T13:54:31;3.53;;;1.10;;
49722;SDS011;43484;43.608;1.458;2023-12-07T13:57:18;3.65;;;1.17;;
49722;SDS011;43484;43.608;1.458;2023-12-07T13:59:47;9.35;;;1.95;;
49722;SDS011;43484;43.608;1.458;2023-12-07T14:02:13;4.70;;;1.80;;
49722;SDS011;43484;43.608;1.458;2023-12-07T14:04:41;3.70;;;1.13;;
49722;SDS011;43484;43.608;1.458;2023-12-07T14:07:13;9.48;;;1.38;;
49722;SDS011;43484;43.608;1.458;2023-12-07T14:09:44;4.63;;;1.15;;
49722;SDS011;43484;43.608;1.458;2023-12-07T14:12:23;3.83;;;1.35;;
49722;SDS011;43484;43.608;1.458;2023-12-07T14:14:51;3.53;;;1.08;;
49722;SDS011;43484;43.608;1.458;2023-12-07T14:17:17;3.47;;;1.00;;
49722;SDS011;43484;43.608;1.458;2023-12-07T14:19:46;2.83;;;1.05;;
49722;SDS011;43484;43.608;1.458;2023-12-07T14:22:15;5.97;;;1.55;;
49722;SDS011;43484;43.608;1.458;2023-12-07T14:24:43;3.65;;;1.13;;
49722;SDS011;43484;43.608;1.458;2023-12-07T14:27:10;2.15;;;0.90;;
49722;SDS011;43484;43.608;1.458;2023-12-07T14:29:37;6.22;;;1.10;;
49722;SDS011;43484;43.608;1.458;2023-12-07T14:32:03;5.55;;;1.30;;
49722;SDS011;43484;43.608;1.458;2023-12-07T14:34:30;17.88;;;1.58;;
49722;SDS011;43484;43.608;1.458;2023-12-07T14:37:01;5.13;;;1.02;;
49722;SDS011;43484;43.608;1.458;2023-12-07T14:39:36;6.82;;;1.35;;
49722;SDS011;43484;43.608;1.458;2023-12-07T14:42:03;9.75;;;2.08;;
49722;SDS011;43484;43.608;1.458;2023-12-07T14:44:31;6.90;;;1.55;;
49722;SDS011;43484;43.608;1.458;2023-12-07T14:46:58;3.13;;;1.38;;
49722;SDS011;43484;43.608;1.458;2023-12-07T14:49:25;7.60;;;1.70;;
49722;SDS011;43484;43.608;1.458;2023-12-07T14:51:54;5.53;;;1.45;;
49722;SDS011;43484;43.608;1.458;2023-12-07T14:54:22;14.98;;;1.77;;
49722;SDS011;43484;43.608;1.458;2023-12-07T14:56:55;3.50;;;1.20;;
49722;SDS011;43484;43.608;1.458;2023-12-07T14:59:23;6.00;;;1.40;;
49722;SDS011;43484;43.608;1.458;2023-12-07T15:01:50;1.90;;;1.17;;
49722;SDS011;43484;43.608;1.458;2023-12-07T15:04:17;4.65;;;1.70;;